Terminal Aerodrome Forecast
Issued by NWS Jackson, KY

Home | Current Version | Previous Version | Text Only | Print | Product List | Glossary On
Versions: 1 2 3 4 5 6 7 8 9 10 11 12 13 14 15 16 17 18 19 20 21 22 23
980
FTUS43 KJKL 232238 AAA
TAFJKL
TAF AMD
KJKL 232238Z 2323/2418 VRB03KT 5SM -SHRA BR OVC005
     FM240000 11005KT 3SM -SHRA BR OVC007
     FM240400 07005KT 4SM BR VCSH OVC005
     FM241200 VRB03KT P6SM OVC010
     FM241600 VRB03KT P6SM BKN020=

USA.gov is the U.S. government's official web portal to all federal, state and local government web resources and services.